Colorado Springs, CO (80912)

1:19 AM MST on November 24, 2014 (GMT -0700)
Sage Crest | Change Station
CLOSE
Current Station
Personal Weather Station
Location: Peyton, CO
Elevation: 6500 ft
Nearby Weather Stations

Elev 6500 ft 38.89 °N, 104.53 °W | Updated 3 seconds ago

Clear
Clear
12.0 °F
Feels Like 12 °F
N
1.0
Wind Variable Wind from West
Gusts 4.0 mph

Today
High -- | Low -- °F
--% Chance of Precip.
Yesterday
High -- | Low -- °F
Precip. -- in
6:50 AM 4:39 PM
Waxing Crescent, 4% visible
Pressure 29.97 in
Visibility 10.0 miles
Clouds Few 20000 ft
Windchill 12 °F
Dew Point -2 °F
Humidity 54%
Rainfall -999.00 in
Snow Depth Not available.
UV 0 out of 12
Pollen .10 out of 12
Air Quality Not available.
Flu Activity Not available.
METAR KCOS 240754Z 32013G20KT 10SM FEW200 M04/M14 A2989 RMK AO2 SLP149 T10391139

More Conditions Fewer Conditions

Pressure 29.97 in
Visibility 10.0 miles
Clouds Few 20000 ft
Windchill 12 °F
Dew Point -2 °F
Humidity 54%
Rainfall -999.00 in
Snow Depth Not available.
UV 0 out of 12
Pollen .10 out of 12
Air Quality Not available.
Flu Activity Not available.
METAR KCOS 240754Z 32013G20KT 10SM FEW200 M04/M14 A2989 RMK AO2 SLP149 T10391139

More Conditions Fewer Conditions

10-Day Weather Forecast

Almanac

Astronomy

Nov. 24, 2014 Rise Set
Actual Time
Civil Twilight
Nautical Twilight
Astronomical Twilight
Moon
Length of Visible Light
Length of Day
Tomorrow will be .
, % of the Moon is Illuminated

Today's Extremes

State Highs State Lows

Community

WunderPhotos

Upload Photos

1,773,295 photos uploaded!

WunderBlogs® & News

Nearby

Air Quality

  Air Quality AQ Index Pollutant
Not available.

Snow Depth

Station Depth Elevation

Earthquake Activity

City Distance Mag. Time & Date
Minimum magnitude displayed is 2.5.

Coastal Water Temperatures

Place Temperature

Nearby Weather Stations